CES9647 ZBYN-ZBAA
Flight info
| Callsign | CES9647 |
|---|---|
| Flight time | 0h 44m |
| Altitude | 33100 |
| Route | TONOV8ZD TONOV G212 AMVOG W61 NUDKU W56 DUGEB DUGEB5D |
| Aircraft | A21N/M-SDE2E3FGHIRWXY/LB1 |
Departure
| Time | 2026-04-24 12:56 |
|---|---|
| Airport | Taiyuan Wusu International Airport (ZBYN) |
Arrival
| Time | 2026-04-24 13:40 |
|---|---|
| Airport | Beijing Capital International Airport (ZBAA) |
| Time | Latitude | Longitude | Altitude | Speed | Heading |
|---|---|---|---|---|---|
| 2026-04-24 12:38 | 37.75328 | 112.62597 | 2589 ft | 0 kts | 37° |
| 2026-04-24 12:49 | 37.75327 | 112.62597 | 2589 ft | 1 kts | 37° |
| 2026-04-24 12:49 | 37.75319 | 112.62589 | 2589 ft | 2 kts | 33° |
| 2026-04-24 12:49 | 37.75306 | 112.62582 | 2589 ft | 2 kts | 16° |
| 2026-04-24 12:50 | 37.75291 | 112.62578 | 2589 ft | 2 kts | 2° |
| 2026-04-24 12:50 | 37.75277 | 112.62579 | 2589 ft | 2 kts | 349° |
| 2026-04-24 12:50 | 37.75263 | 112.62584 | 2589 ft | 2 kts | 335° |
| 2026-04-24 12:50 | 37.75250 | 112.62592 | 2589 ft | 2 kts | 322° |
| 2026-04-24 12:51 | 37.75239 | 112.62605 | 2589 ft | 1 kts | 309° |
| 2026-04-24 12:51 | 37.75235 | 112.62611 | 2589 ft | 1 kts | 306° |
| 2026-04-24 12:51 | 37.75235 | 112.62612 | 2589 ft | 0 kts | 306° |
| 2026-04-24 12:53 | 37.75238 | 112.62607 | 2589 ft | 2 kts | 306° |
| 2026-04-24 12:53 | 37.75254 | 112.62580 | 2589 ft | 4 kts | 308° |
| 2026-04-24 12:53 | 37.75293 | 112.62518 | 2589 ft | 16 kts | 307° |
| 2026-04-24 12:53 | 37.75378 | 112.62365 | 2589 ft | 22 kts | 284° |
| 2026-04-24 12:54 | 37.75297 | 112.62212 | 2589 ft | 20 kts | 269° |
| 2026-04-24 12:54 | 37.75390 | 112.62022 | 2589 ft | 39 kts | 307° |
| 2026-04-24 12:54 | 37.75558 | 112.61745 | 2589 ft | 38 kts | 308° |
| 2026-04-24 12:54 | 37.75645 | 112.61593 | 2589 ft | 8 kts | 301° |
| 2026-04-24 12:55 | 37.75630 | 112.61512 | 2589 ft | 11 kts | 216° |
| 2026-04-24 12:55 | 37.75552 | 112.61465 | 2589 ft | 15 kts | 186° |
| 2026-04-24 12:55 | 37.75392 | 112.61674 | 2589 ft | 68 kts | 126° |
| 2026-04-24 12:55 | 37.74957 | 112.62402 | 2589 ft | 137 kts | 127° |
| 2026-04-24 12:56 | 37.74293 | 112.63537 | 2795 ft | 174 kts | 127° |
| 2026-04-24 12:56 | 37.73566 | 112.64745 | 3454 ft | 180 kts | 126° |
| 2026-04-24 12:56 | 37.72811 | 112.65963 | 4308 ft | 177 kts | 129° |
| 2026-04-24 12:56 | 37.72254 | 112.67343 | 4870 ft | 186 kts | 96° |
| 2026-04-24 12:57 | 37.72635 | 112.68925 | 5258 ft | 206 kts | 53° |
| 2026-04-24 12:57 | 37.73838 | 112.70062 | 5706 ft | 225 kts | 31° |
| 2026-04-24 12:57 | 37.75140 | 112.71315 | 6067 ft | 255 kts | 53° |
| 2026-04-24 12:57 | 37.75953 | 112.73361 | 6873 ft | 272 kts | 70° |
| 2026-04-24 12:58 | 37.76555 | 112.75626 | 8058 ft | 277 kts | 70° |
| 2026-04-24 12:58 | 37.77166 | 112.77900 | 9175 ft | 282 kts | 69° |
| 2026-04-24 12:58 | 37.77840 | 112.80250 | 10240 ft | 289 kts | 67° |
| 2026-04-24 12:58 | 37.78554 | 112.82631 | 11135 ft | 300 kts | 66° |
| 2026-04-24 12:59 | 37.79336 | 112.85138 | 11803 ft | 318 kts | 65° |
| 2026-04-24 12:59 | 37.80183 | 112.87808 | 12429 ft | 337 kts | 65° |
| 2026-04-24 12:59 | 37.81087 | 112.90631 | 13020 ft | 356 kts | 65° |
| 2026-04-24 12:59 | 37.82028 | 112.93563 | 13541 ft | 374 kts | 65° |
| 2026-04-24 13:00 | 37.83039 | 112.96704 | 14006 ft | 393 kts | 65° |
| 2026-04-24 13:00 | 37.84092 | 112.99976 | 14485 ft | 409 kts | 65° |
| 2026-04-24 13:00 | 37.85166 | 113.03323 | 15200 ft | 417 kts | 65° |
| 2026-04-24 13:00 | 37.86258 | 113.06732 | 16000 ft | 422 kts | 65° |
| 2026-04-24 13:01 | 37.87350 | 113.10146 | 16774 ft | 427 kts | 65° |
| 2026-04-24 13:01 | 37.88476 | 113.13670 | 17521 ft | 432 kts | 65° |
| 2026-04-24 13:01 | 37.89602 | 113.17197 | 18241 ft | 437 kts | 65° |
| 2026-04-24 13:01 | 37.90731 | 113.20736 | 18941 ft | 442 kts | 66° |
| 2026-04-24 13:02 | 37.91896 | 113.24394 | 19617 ft | 448 kts | 66° |
| 2026-04-24 13:02 | 37.93048 | 113.28019 | 20239 ft | 453 kts | 66° |
| 2026-04-24 13:02 | 37.94227 | 113.31733 | 20765 ft | 456 kts | 66° |
| 2026-04-24 13:02 | 37.95404 | 113.35447 | 21193 ft | 461 kts | 66° |
| 2026-04-24 13:03 | 37.96606 | 113.39243 | 21633 ft | 465 kts | 66° |
| 2026-04-24 13:03 | 37.97816 | 113.43071 | 22071 ft | 469 kts | 66° |
| 2026-04-24 13:03 | 37.99030 | 113.46912 | 22511 ft | 472 kts | 66° |
| 2026-04-24 13:03 | 38.00250 | 113.50779 | 22947 ft | 476 kts | 66° |
| 2026-04-24 13:04 | 38.01469 | 113.54649 | 23359 ft | 479 kts | 66° |
| 2026-04-24 13:04 | 38.02699 | 113.58557 | 23805 ft | 481 kts | 66° |
| 2026-04-24 13:04 | 38.03941 | 113.62515 | 24454 ft | 479 kts | 66° |
| 2026-04-24 13:04 | 38.05151 | 113.66373 | 25137 ft | 476 kts | 67° |
| 2026-04-24 13:05 | 38.06362 | 113.70249 | 25743 ft | 473 kts | 67° |
| 2026-04-24 13:05 | 38.07579 | 113.74142 | 26289 ft | 472 kts | 67° |
| 2026-04-24 13:05 | 38.08773 | 113.77965 | 26807 ft | 471 kts | 67° |
| 2026-04-24 13:05 | 38.09980 | 113.81836 | 27336 ft | 470 kts | 67° |
| 2026-04-24 13:06 | 38.11180 | 113.85693 | 27891 ft | 468 kts | 67° |
| 2026-04-24 13:06 | 38.12367 | 113.89514 | 28433 ft | 467 kts | 67° |
| 2026-04-24 13:06 | 38.13551 | 113.93327 | 28964 ft | 464 kts | 67° |
| 2026-04-24 13:06 | 38.14728 | 113.97127 | 29473 ft | 463 kts | 67° |
| 2026-04-24 13:07 | 38.15891 | 114.00886 | 29967 ft | 461 kts | 67° |
| 2026-04-24 13:07 | 38.17056 | 114.04657 | 30454 ft | 459 kts | 67° |
| 2026-04-24 13:07 | 38.18222 | 114.08426 | 30905 ft | 458 kts | 66° |
| 2026-04-24 13:07 | 38.19481 | 114.12122 | 31291 ft | 457 kts | 63° |
| 2026-04-24 13:08 | 38.20843 | 114.15743 | 31597 ft | 458 kts | 62° |
| 2026-04-24 13:08 | 38.22253 | 114.19419 | 31820 ft | 461 kts | 62° |
| 2026-04-24 13:08 | 38.23651 | 114.23056 | 32028 ft | 463 kts | 62° |
| 2026-04-24 13:09 | 38.26483 | 114.30455 | 32547 ft | 466 kts | 62° |
| 2026-04-24 13:09 | 38.27880 | 114.34123 | 32766 ft | 468 kts | 62° |
| 2026-04-24 13:09 | 38.29297 | 114.37849 | 32971 ft | 470 kts | 62° |
| 2026-04-24 13:09 | 38.30716 | 114.41582 | 33066 ft | 471 kts | 62° |
| 2026-04-24 13:10 | 38.33555 | 114.49081 | 33061 ft | 472 kts | 62° |
| 2026-04-24 13:10 | 38.36402 | 114.56609 | 33058 ft | 472 kts | 62° |
| 2026-04-24 13:11 | 38.39069 | 114.64239 | 33062 ft | 474 kts | 68° |
| 2026-04-24 13:11 | 38.40547 | 114.72423 | 33057 ft | 479 kts | 82° |
| 2026-04-24 13:12 | 38.40579 | 114.80901 | 33061 ft | 481 kts | 95° |
| 2026-04-24 13:12 | 38.39304 | 114.89231 | 33058 ft | 482 kts | 102° |
| 2026-04-24 13:13 | 38.37722 | 114.97553 | 33051 ft | 484 kts | 103° |
| 2026-04-24 13:13 | 38.36174 | 115.05802 | 33047 ft | 483 kts | 102° |
| 2026-04-24 13:14 | 38.34625 | 115.14140 | 33047 ft | 484 kts | 102° |
| 2026-04-24 13:14 | 38.33081 | 115.22459 | 33043 ft | 483 kts | 102° |
| 2026-04-24 13:15 | 38.32320 | 115.26553 | 32893 ft | 478 kts | 102° |
| 2026-04-24 13:15 | 38.31551 | 115.30663 | 32284 ft | 475 kts | 102° |
| 2026-04-24 13:15 | 38.30792 | 115.34721 | 31055 ft | 475 kts | 102° |
| 2026-04-24 13:15 | 38.30032 | 115.38783 | 29568 ft | 481 kts | 102° |
| 2026-04-24 13:16 | 38.29260 | 115.42895 | 28543 ft | 486 kts | 102° |
| 2026-04-24 13:16 | 38.28583 | 115.47100 | 27845 ft | 487 kts | 94° |
| 2026-04-24 13:16 | 38.28825 | 115.51379 | 27557 ft | 482 kts | 74° |
| 2026-04-24 13:16 | 38.30069 | 115.55260 | 27552 ft | 478 kts | 57° |
| 2026-04-24 13:17 | 38.32142 | 115.58487 | 27446 ft | 460 kts | 40° |
| 2026-04-24 13:17 | 38.34677 | 115.60720 | 26687 ft | 441 kts | 25° |
| 2026-04-24 13:17 | 38.37392 | 115.62406 | 25211 ft | 439 kts | 22° |
| 2026-04-24 13:17 | 38.40170 | 115.64050 | 23191 ft | 445 kts | 22° |
| 2026-04-24 13:18 | 38.42949 | 115.65713 | 21584 ft | 455 kts | 24° |
| 2026-04-24 13:18 | 38.45810 | 115.67475 | 20167 ft | 457 kts | 25° |
| 2026-04-24 13:18 | 38.48573 | 115.69213 | 19515 ft | 430 kts | 25° |
| 2026-04-24 13:18 | 38.51198 | 115.70866 | 18566 ft | 427 kts | 25° |
| 2026-04-24 13:19 | 38.53865 | 115.72548 | 17953 ft | 429 kts | 25° |
| 2026-04-24 13:19 | 38.56559 | 115.74251 | 17664 ft | 428 kts | 25° |
| 2026-04-24 13:19 | 38.59218 | 115.75935 | 17649 ft | 429 kts | 25° |
| 2026-04-24 13:19 | 38.61879 | 115.77623 | 17648 ft | 429 kts | 25° |
| 2026-04-24 13:20 | 38.64519 | 115.79439 | 17648 ft | 430 kts | 29° |
| 2026-04-24 13:20 | 38.67032 | 115.81490 | 17644 ft | 431 kts | 33° |
| 2026-04-24 13:20 | 38.69440 | 115.83806 | 17646 ft | 432 kts | 38° |
| 2026-04-24 13:20 | 38.71757 | 115.86256 | 17647 ft | 433 kts | 38° |
| 2026-04-24 13:21 | 38.74031 | 115.88711 | 17639 ft | 433 kts | 39° |
| 2026-04-24 13:21 | 38.76355 | 115.91232 | 17651 ft | 433 kts | 39° |
| 2026-04-24 13:21 | 38.78640 | 115.93706 | 17642 ft | 433 kts | 39° |
| 2026-04-24 13:21 | 38.80927 | 115.96180 | 17603 ft | 430 kts | 39° |
| 2026-04-24 13:22 | 38.83215 | 115.98655 | 17148 ft | 425 kts | 39° |
| 2026-04-24 13:22 | 38.85441 | 116.01059 | 16378 ft | 423 kts | 39° |
| 2026-04-24 13:22 | 38.87676 | 116.03475 | 15851 ft | 420 kts | 39° |
| 2026-04-24 13:22 | 38.89913 | 116.05898 | 15640 ft | 419 kts | 39° |
| 2026-04-24 13:23 | 38.92146 | 116.08320 | 15634 ft | 420 kts | 39° |
| 2026-04-24 13:23 | 38.94358 | 116.10721 | 15632 ft | 421 kts | 39° |
| 2026-04-24 13:23 | 38.96591 | 116.13147 | 15624 ft | 419 kts | 39° |
| 2026-04-24 13:23 | 38.98828 | 116.15522 | 15290 ft | 412 kts | 36° |
| 2026-04-24 13:24 | 39.01281 | 116.17345 | 14543 ft | 409 kts | 25° |
| 2026-04-24 13:24 | 39.03872 | 116.18821 | 13774 ft | 407 kts | 23° |
| 2026-04-24 13:24 | 39.06466 | 116.20254 | 13062 ft | 404 kts | 23° |
| 2026-04-24 13:24 | 39.09007 | 116.21693 | 12364 ft | 400 kts | 23° |
| 2026-04-24 13:25 | 39.11536 | 116.23164 | 11634 ft | 398 kts | 24° |
| 2026-04-24 13:25 | 39.14061 | 116.24662 | 10899 ft | 396 kts | 24° |
| 2026-04-24 13:25 | 39.16514 | 116.26136 | 10204 ft | 393 kts | 24° |
| 2026-04-24 13:25 | 39.18990 | 116.27633 | 9483 ft | 391 kts | 24° |
| 2026-04-24 13:26 | 39.21414 | 116.29106 | 9021 ft | 382 kts | 24° |
| 2026-04-24 13:26 | 39.23780 | 116.30548 | 8777 ft | 367 kts | 24° |
| 2026-04-24 13:26 | 39.26049 | 116.31933 | 8538 ft | 354 kts | 24° |
| 2026-04-24 13:26 | 39.28245 | 116.33275 | 8314 ft | 341 kts | 24° |
| 2026-04-24 13:27 | 39.30346 | 116.34561 | 8100 ft | 329 kts | 24° |
| 2026-04-24 13:27 | 39.32376 | 116.35802 | 7896 ft | 318 kts | 24° |
| 2026-04-24 13:27 | 39.34334 | 116.37002 | 7767 ft | 304 kts | 24° |
| 2026-04-24 13:27 | 39.36191 | 116.38140 | 7752 ft | 288 kts | 24° |
| 2026-04-24 13:28 | 39.37993 | 116.39244 | 7757 ft | 287 kts | 24° |
| 2026-04-24 13:28 | 39.39805 | 116.40355 | 7760 ft | 287 kts | 24° |
| 2026-04-24 13:28 | 39.41614 | 116.41465 | 7715 ft | 287 kts | 24° |
| 2026-04-24 13:28 | 39.43408 | 116.42567 | 7567 ft | 286 kts | 24° |
| 2026-04-24 13:29 | 39.45195 | 116.43663 | 7421 ft | 285 kts | 24° |
| 2026-04-24 13:29 | 39.46986 | 116.44788 | 7232 ft | 286 kts | 26° |
| 2026-04-24 13:29 | 39.48696 | 116.46077 | 6986 ft | 285 kts | 32° |
| 2026-04-24 13:29 | 39.50319 | 116.47550 | 6741 ft | 285 kts | 34° |
| 2026-04-24 13:30 | 39.51924 | 116.49074 | 6494 ft | 285 kts | 35° |
| 2026-04-24 13:30 | 39.53524 | 116.50605 | 6248 ft | 285 kts | 35° |
| 2026-04-24 13:30 | 39.55122 | 116.52136 | 6002 ft | 285 kts | 35° |
| 2026-04-24 13:30 | 39.56710 | 116.53655 | 5757 ft | 284 kts | 35° |
| 2026-04-24 13:31 | 39.58287 | 116.55164 | 5514 ft | 284 kts | 35° |
| 2026-04-24 13:31 | 39.59890 | 116.56696 | 5266 ft | 282 kts | 35° |
| 2026-04-24 13:31 | 39.61470 | 116.58204 | 5022 ft | 282 kts | 35° |
| 2026-04-24 13:31 | 39.63039 | 116.59705 | 4782 ft | 280 kts | 35° |
| 2026-04-24 13:32 | 39.64599 | 116.61197 | 4538 ft | 279 kts | 35° |
| 2026-04-24 13:32 | 39.66166 | 116.62669 | 4294 ft | 278 kts | 31° |
| 2026-04-24 13:32 | 39.67940 | 116.63527 | 4036 ft | 274 kts | 4° |
| 2026-04-24 13:32 | 39.69848 | 116.63390 | 3797 ft | 272 kts | 351° |
| 2026-04-24 13:33 | 39.71705 | 116.63062 | 3549 ft | 270 kts | 350° |
| 2026-04-24 13:33 | 39.73566 | 116.62733 | 3306 ft | 270 kts | 350° |
| 2026-04-24 13:33 | 39.75424 | 116.62421 | 3067 ft | 269 kts | 351° |
| 2026-04-24 13:33 | 39.77296 | 116.62131 | 2973 ft | 269 kts | 351° |
| 2026-04-24 13:34 | 39.79154 | 116.61839 | 2970 ft | 269 kts | 351° |
| 2026-04-24 13:34 | 39.81026 | 116.61546 | 2969 ft | 268 kts | 351° |
| 2026-04-24 13:34 | 39.82860 | 116.61262 | 2966 ft | 268 kts | 351° |
| 2026-04-24 13:34 | 39.84734 | 116.60966 | 2964 ft | 269 kts | 351° |
| 2026-04-24 13:35 | 39.86574 | 116.60677 | 2958 ft | 261 kts | 351° |
| 2026-04-24 13:35 | 39.88337 | 116.60402 | 2954 ft | 245 kts | 351° |
| 2026-04-24 13:35 | 39.89979 | 116.60147 | 2945 ft | 230 kts | 352° |
| 2026-04-24 13:35 | 39.91495 | 116.59918 | 2981 ft | 211 kts | 352° |
| 2026-04-24 13:36 | 39.92899 | 116.59703 | 2862 ft | 194 kts | 351° |
| 2026-04-24 13:36 | 39.94188 | 116.59502 | 2669 ft | 177 kts | 351° |
| 2026-04-24 13:36 | 39.95353 | 116.59318 | 2477 ft | 160 kts | 351° |
| 2026-04-24 13:36 | 39.96407 | 116.59150 | 2236 ft | 146 kts | 351° |
| 2026-04-24 13:37 | 39.97406 | 116.58991 | 2035 ft | 142 kts | 351° |
| 2026-04-24 13:37 | 39.98391 | 116.58834 | 1857 ft | 141 kts | 351° |
| 2026-04-24 13:37 | 39.99353 | 116.58682 | 1683 ft | 140 kts | 351° |
| 2026-04-24 13:37 | 40.00325 | 116.58528 | 1504 ft | 140 kts | 352° |
| 2026-04-24 13:38 | 40.01286 | 116.58376 | 1323 ft | 139 kts | 352° |
| 2026-04-24 13:38 | 40.02250 | 116.58224 | 1136 ft | 139 kts | 352° |
| 2026-04-24 13:38 | 40.03211 | 116.58073 | 940 ft | 138 kts | 352° |
| 2026-04-24 13:38 | 40.04157 | 116.57928 | 744 ft | 138 kts | 352° |
| 2026-04-24 13:39 | 40.05110 | 116.57764 | 572 ft | 137 kts | 352° |
| 2026-04-24 13:39 | 40.06066 | 116.57610 | 395 ft | 137 kts | 354° |
| 2026-04-24 13:39 | 40.07015 | 116.57468 | 238 ft | 137 kts | 352° |
| 2026-04-24 13:39 | 40.07956 | 116.57324 | 125 ft | 128 kts | 353° |
| 2026-04-24 13:40 | 40.08670 | 116.57207 | 125 ft | 78 kts | 353° |
| 2026-04-24 13:40 | 40.09029 | 116.57153 | 125 ft | 21 kts | 354° |
| 2026-04-24 13:40 | 40.09175 | 116.57173 | 124 ft | 20 kts | 8° |
| 2026-04-24 13:40 | 40.09307 | 116.57225 | 124 ft | 13 kts | 23° |
| 2026-04-24 13:41 | 40.09348 | 116.57300 | 124 ft | 6 kts | 89° |
| 2026-04-24 13:41 | 40.09348 | 116.57358 | 124 ft | 7 kts | 89° |
| 2026-04-24 13:41 | 40.09323 | 116.57415 | 124 ft | 8 kts | 150° |
| 2026-04-24 13:41 | 40.09264 | 116.57435 | 124 ft | 10 kts | 174° |
| 2026-04-24 13:42 | 40.09175 | 116.57445 | 124 ft | 15 kts | 174° |
| 2026-04-24 13:42 | 40.09046 | 116.57464 | 124 ft | 19 kts | 173° |
| 2026-04-24 13:42 | 40.08917 | 116.57486 | 124 ft | 18 kts | 171° |
| 2026-04-24 13:42 | 40.08826 | 116.57442 | 124 ft | 14 kts | 225° |
| 2026-04-24 13:43 | 40.08705 | 116.57423 | 124 ft | 21 kts | 172° |
| 2026-04-24 13:43 | 40.08544 | 116.57449 | 124 ft | 23 kts | 173° |
| 2026-04-24 13:43 | 40.08413 | 116.57471 | 124 ft | 14 kts | 172° |
| 2026-04-24 13:43 | 40.08306 | 116.57520 | 124 ft | 17 kts | 112° |
| 2026-04-24 13:44 | 40.08309 | 116.57675 | 124 ft | 17 kts | 84° |
| 2026-04-24 13:44 | 40.08323 | 116.57830 | 125 ft | 17 kts | 83° |
| 2026-04-24 13:44 | 40.08337 | 116.57985 | 124 ft | 17 kts | 83° |
| 2026-04-24 13:44 | 40.08310 | 116.58153 | 124 ft | 12 kts | 149° |
| 2026-04-24 13:45 | 40.08263 | 116.58233 | 124 ft | 8 kts | 94° |
| 2026-04-24 13:45 | 40.08245 | 116.58276 | 124 ft | 3 kts | 146° |
| 2026-04-24 13:45 | 40.08219 | 116.58284 | 124 ft | 4 kts | 171° |
| 2026-04-24 13:45 | 40.08190 | 116.58289 | 124 ft | 3 kts | 173° |
| 2026-04-24 13:46 | 40.08178 | 116.58291 | 124 ft | 0 kts | 173° |